Terminal Aerodrome Forecast
Issued by NWS Columbia, SC

Current Version | Previous Version | Text Only | Print | Product List | Glossary On
Versions: 1 2 3 4 5 6 7 8 9 10 11 12 13 14 15 16 17 18 19 20 21 22 23 24 25 26 27 28 29 30 31 32
672
FTUS42 KCAE 182338
TAFCAE
TAF
KCAE 182338Z 1900/1924 14008KT P6SM BKN035 OVC050
     FM190400 10005KT P6SM OVC020
     FM190800 VRB03KT 4SM BR OVC007
      TEMPO 1911/1915 2SM BR
     FM191800 12005KT P6SM OVC015=

USA.gov is the U.S. government's official web portal to all federal, state and local government web resources and services.